Time;durP1;ratioP1;P1;durP2;ratioP2;P2;SDS_P1;SDS_P2;PMS_P1;PMS_P2;Temp;Humidity;BMP_temperature;BMP_pressure;BME280_temperature;BME280_humidity;BME280_pressure;Samples;Min_cycle;Max_cycle;Signal;HPM_P1;HPM_P2
2022/08/13 00:01:38;;;;;;;4.70;2.63;;;;;;;25.02;33.40;101492.31;5092347;28;20032;-67
2022/08/13 00:04:14;;;;;;;3.55;2.17;;;;;;;24.95;33.66;101492.19;5091395;28;20040;-66
2022/08/13 00:09:26;;;;;;;6.75;3.03;;;;;;;24.84;33.71;101494.53;5093122;28;20477;-66
2022/08/13 00:15:27;;;;;;;4.32;2.63;;;;;;;24.68;34.25;101493.63;5092532;27;20060;-67
2022/08/13 00:18:02;;;;;;;3.90;2.60;;;;;;;24.64;33.94;101492.31;5091804;28;20394;-66
2022/08/13 00:20:45;;;;;;;3.20;2.50;;;;;;;24.59;34.33;101493.91;5091395;28;20059;-67
2022/08/13 00:23:23;;;;;;;2.75;2.05;;;;;;;24.55;34.37;101495.31;5092190;28;20093;-66
2022/08/13 00:26:11;;;;;;;3.75;2.40;;;;;;;24.51;34.49;101496.69;5092295;28;20393;-66
2022/08/13 00:28:43;;;;;;;3.88;2.10;;;;;;;24.46;34.29;101501.88;5090701;28;20607;-66
2022/08/13 00:31:09;;;;;;;5.15;2.65;;;;;;;24.40;34.61;101506.22;5092227;28;20036;-66
2022/08/13 00:33:36;;;;;;;2.65;2.30;;;;;;;24.34;34.33;101499.56;5091034;28;20044;-66
2022/08/13 00:36:13;;;;;;;5.32;2.33;;;;;;;24.31;34.36;101499.94;5091487;28;20048;-65
2022/08/13 00:38:59;;;;;;;3.10;2.50;;;;;;;24.26;34.68;101493.25;5091650;28;20047;-65
2022/08/13 00:41:38;;;;;;;5.47;2.60;;;;;;;24.19;35.02;101495.00;5091956;28;20050;-65
2022/08/13 00:44:28;;;;;;;5.50;3.17;;;;;;;24.13;34.88;101495.75;5092214;28;20040;-65
2022/08/13 00:48:41;;;;;;;5.72;3.22;;;;;;;24.07;34.98;101494.56;5091454;28;20032;-65
2022/08/13 00:49:47;;;;;;;4.03;2.80;;;;;;;24.01;35.14;101498.03;5091368;28;20040;-65
2022/08/13 00:52:32;;;;;;;3.95;2.90;;;;;;;23.95;35.33;101507.00;5074945;28;20071;-65
2022/08/13 00:55:06;;;;;;;4.10;2.65;;;;;;;23.90;35.33;101499.31;5091504;28;20036;-65
2022/08/13 00:57:34;;;;;;;4.18;2.80;;;;;;;23.86;35.31;101499.84;5091991;28;20102;-66
2022/08/13 01:00:07;;;;;;;4.30;3.15;;;;;;;23.83;35.47;101497.47;5073649;28;20032;-66
2022/08/13 01:02:51;;;;;;;3.22;2.65;;;;;;;23.80;35.61;101492.34;5091685;28;20032;-67
2022/08/13 01:05:41;;;;;;;5.75;2.60;;;;;;;23.78;35.72;101506.19;5091360;28;20098;-67
2022/08/13 01:08:09;;;;;;;3.97;2.83;;;;;;;23.74;35.87;101504.84;5091574;28;20127;-67
2022/08/13 01:10:45;;;;;;;3.33;2.60;;;;;;;23.71;35.50;101502.47;5091362;28;20048;-67
2022/08/13 01:13:28;;;;;;;5.55;2.53;;;;;;;23.67;35.65;101495.63;5089862;28;20469;-68
2022/08/13 01:15:59;;;;;;;5.82;3.03;;;;;;;23.65;35.90;101500.44;5091316;28;20050;-67
2022/08/13 01:18:29;;;;;;;3.53;2.88;;;;;;;23.61;36.02;101505.44;5091237;28;20397;-67
2022/08/13 01:21:08;;;;;;;6.15;3.03;;;;;;;23.57;35.97;101495.84;5090994;28;20205;-67
2022/08/13 01:23:39;;;;;;;2.95;2.40;;;;;;;23.54;36.03;101496.16;5091438;28;20089;-68
2022/08/13 01:26:09;;;;;;;3.22;2.92;;;;;;;23.52;36.27;101500.13;5091293;28;20044;-67
2022/08/13 01:28:38;;;;;;;3.95;2.70;;;;;;;23.46;36.55;101486.09;5091036;28;20044;-67
2022/08/13 01:31:10;;;;;;;5.35;2.97;;;;;;;23.42;36.22;101501.19;5090141;28;20052;-67
2022/08/13 01:33:50;;;;;;;6.22;3.00;;;;;;;23.38;36.38;101498.97;5090966;28;20031;-67
2022/08/13 01:36:20;;;;;;;6.95;3.50;;;;;;;23.35;36.38;101502.06;5091377;27;20051;-67
2022/08/13 01:39:07;;;;;;;6.05;3.17;;;;;;;23.30;36.33;101491.63;5071076;28;20040;-66
2022/08/13 01:41:43;;;;;;;9.50;3.60;;;;;;;23.29;36.54;101497.28;5070885;28;20545;-67
2022/08/13 01:44:25;;;;;;;5.28;3.30;;;;;;;23.25;37.12;101510.50;5089767;28;20051;-66
2022/08/13 01:52:40;;;;;;;6.95;3.90;;;;;;;23.16;36.98;101505.22;5090460;28;20040;-66
2022/08/13 01:55:08;;;;;;;5.38;3.53;;;;;;;23.11;37.04;101508.47;5090044;28;20051;-66
2022/08/13 01:57:43;;;;;;;7.25;3.80;;;;;;;23.07;37.23;101507.97;5090722;28;20044;-66
2022/08/13 02:00:21;;;;;;;5.25;3.55;;;;;;;23.04;37.10;101502.00;5090917;28;20036;-67
2022/08/13 02:03:11;;;;;;;5.15;3.83;;;;;;;23.01;37.35;101505.03;5090809;28;20042;-66
2022/08/13 02:05:43;;;;;;;5.97;3.60;;;;;;;22.99;37.39;101501.63;5091070;28;20047;-66
2022/08/13 02:08:29;;;;;;;4.90;3.05;;;;;;;22.97;37.50;101503.69;5091405;28;20035;-66
2022/08/13 02:10:56;;;;;;;4.75;3.97;;;;;;;22.94;37.23;101504.03;5090839;28;20040;-66
2022/08/13 02:13:52;;;;;;;5.28;3.75;;;;;;;22.92;37.75;101506.09;5090788;28;20028;-66
2022/08/13 02:16:19;;;;;;;5.27;3.87;;;;;;;22.91;37.45;101491.53;5091124;28;20036;-66
2022/08/13 02:18:46;;;;;;;4.88;3.72;;;;;;;22.91;37.59;101493.41;5090635;28;20498;-67
2022/08/13 02:21:19;;;;;;;8.63;3.88;;;;;;;22.90;37.78;101509.00;5090641;28;20036;-67
2022/08/13 02:23:57;;;;;;;3.92;3.47;;;;;;;22.89;37.77;101503.69;5090521;28;20494;-67
2022/08/13 02:26:28;;;;;;;6.00;3.85;;;;;;;22.87;37.55;101508.50;5091015;27;20032;-67
2022/08/13 02:28:59;;;;;;;6.03;3.75;;;;;;;22.83;37.40;101510.72;5090392;28;20037;-68
2022/08/13 02:31:28;;;;;;;6.50;4.10;;;;;;;22.80;37.66;101511.91;5090827;28;20044;-66
2022/08/13 02:34:19;;;;;;;6.85;4.15;;;;;;;22.77;37.72;101508.63;5090504;28;20032;-66
2022/08/13 02:36:47;;;;;;;8.02;3.95;;;;;;;22.73;37.66;101504.53;5090371;28;20048;-66
2022/08/13 02:39:34;;;;;;;6.35;4.10;;;;;;;22.68;37.95;101507.78;5090475;28;20048;-66
2022/08/13 02:42:10;;;;;;;7.82;4.50;;;;;;;22.64;38.02;101509.16;5088960;28;20040;-66
2022/08/13 02:44:48;;;;;;;7.25;3.92;;;;;;;22.58;37.82;101501.63;5090690;28;20131;-66
2022/08/13 02:47:19;;;;;;;12.60;4.18;;;;;;;22.55;38.08;101496.50;5089010;28;20049;-66
2022/08/13 02:50:07;;;;;;;5.07;3.85;;;;;;;22.55;37.98;101504.72;5090184;28;20036;-66
2022/08/13 02:52:36;;;;;;;4.22;3.72;;;;;;;22.52;37.91;101505.06;5090147;28;20043;-66
2022/08/13 02:55:19;;;;;;;5.55;4.25;;;;;;;22.49;38.08;101506.25;5091085;28;20049;-66
2022/08/13 02:57:47;;;;;;;5.75;4.43;;;;;;;22.46;38.08;101497.53;5094050;28;20051;-66
2022/08/13 03:00:19;;;;;;;6.97;3.75;;;;;;;22.41;38.32;101499.91;5093826;28;20529;-65
2022/08/13 03:05:31;;;;;;;7.15;3.65;;;;;;;22.35;38.10;101498.72;5093509;27;20486;-66
2022/08/13 03:08:18;;;;;;;6.95;4.47;;;;;;;22.32;38.52;101500.94;5093743;28;20052;-66
2022/08/13 03:11:05;;;;;;;7.10;4.10;;;;;;;22.28;38.24;101497.66;5093959;28;20051;-66
2022/08/13 03:13:42;;;;;;;6.57;3.78;;;;;;;22.27;38.70;101500.56;5093897;28;20644;-66
2022/08/13 03:16:18;;;;;;;4.53;4.13;;;;;;;22.23;38.27;101500.03;5092952;27;20048;-67
2022/08/13 03:18:46;;;;;;;4.82;3.60;;;;;;;22.22;38.60;101500.22;5093674;28;20046;-66
2022/08/13 03:21:35;;;;;;;5.88;3.85;;;;;;;22.18;38.84;101496.97;5093504;28;20036;-66
2022/08/13 03:24:18;;;;;;;5.78;4.18;;;;;;;22.17;38.76;101507.06;5093646;28;20089;-66
2022/08/13 03:26:57;;;;;;;4.82;4.22;;;;;;;22.15;38.66;101510.97;5092180;28;20138;-66
2022/08/13 03:29:24;;;;;;;9.50;4.15;;;;;;;22.10;38.67;101497.81;5093163;28;20054;-66
2022/08/13 03:32:13;;;;;;;7.35;4.13;;;;;;;22.08;38.65;101509.94;5093826;28;20269;-67
2022/08/13 03:34:44;;;;;;;7.28;3.90;;;;;;;22.03;39.01;101504.13;5093765;28;20101;-66
2022/08/13 03:37:11;;;;;;;5.20;3.80;;;;;;;22.03;38.96;101512.31;5093024;27;20048;-67
2022/08/13 03:39:40;;;;;;;5.20;4.00;;;;;;;22.01;39.05;101512.47;5093470;28;20048;-66
2022/08/13 03:42:10;;;;;;;5.32;3.72;;;;;;;21.99;38.95;101508.19;5093026;28;20040;-67
2022/08/13 03:44:46;;;;;;;4.75;4.35;;;;;;;21.98;39.05;101503.72;5093261;28;20105;-67
2022/08/13 03:47:13;;;;;;;5.47;3.88;;;;;;;21.95;39.18;101510.38;5092760;28;20040;-66
2022/08/13 03:50:00;;;;;;;6.78;4.07;;;;;;;21.93;38.99;101508.84;5092787;28;20044;-66
2022/08/13 03:52:30;;;;;;;8.10;4.03;;;;;;;21.91;39.40;101510.88;5092813;28;20032;-65
2022/08/13 03:55:06;;;;;;;5.53;4.45;;;;;;;21.89;39.29;101509.19;5093047;28;20044;-66
2022/08/13 03:57:36;;;;;;;5.50;3.22;;;;;;;21.89;39.26;101509.19;5093049;28;20040;-70
2022/08/13 04:00:23;;;;;;;7.50;3.88;;;;;;;21.89;39.49;101508.31;5093039;27;20284;-69
2022/08/13 04:02:52;;;;;;;5.47;3.67;;;;;;;21.87;39.49;101508.50;5092340;28;20451;-69
2022/08/13 04:05:35;;;;;;;5.82;3.95;;;;;;;21.85;39.67;101501.47;5091958;28;20391;-69
2022/08/13 04:08:23;;;;;;;;;;;;;;;21.81;39.34;101500.09;5093089;28;20451;-69
2022/08/13 04:10:50;;;;;;;5.07;3.50;;;;;;;21.82;39.33;101505.41;5092896;28;19927;-69
2022/08/13 04:13:21;;;;;;;6.00;3.80;;;;;;;21.78;39.14;101506.75;5092475;28;20466;-69
2022/08/13 04:16:25;;;;;;;4.20;3.70;;;;;;;21.73;39.54;101503.66;5092626;28;20047;-69
2022/08/13 04:18:58;;;;;;;5.05;3.65;;;;;;;21.72;39.43;101499.22;5091875;28;20101;-69
2022/08/13 04:21:28;;;;;;;12.18;4.38;;;;;;;21.70;39.50;101501.25;5092728;28;20050;-69
2022/08/13 04:24:04;;;;;;;5.70;3.80;;;;;;;21.69;39.73;101505.00;5091964;28;20382;-69
2022/08/13 04:26:32;;;;;;;6.05;3.65;;;;;;;21.69;39.58;101504.16;5091937;28;20048;-69
2022/08/13 04:29:09;;;;;;;8.70;4.78;;;;;;;21.68;39.69;101506.03;5090690;28;20044;-69
2022/08/13 04:31:36;;;;;;;10.52;4.18;;;;;;;21.69;39.74;101504.16;5091913;28;20394;-69
2022/08/13 04:34:23;;;;;;;11.70;3.85;;;;;;;21.69;40.25;101509.63;5092499;28;20123;-69
2022/08/13 04:37:07;;;;;;;7.88;3.65;;;;;;;21.70;40.05;101511.34;5092183;28;20120;-70
2022/08/13 04:39:45;;;;;;;7.60;4.15;;;;;;;21.70;40.03;101511.34;5091830;28;20054;-69
2022/08/13 04:42:45;;;;;;;7.07;3.63;;;;;;;21.68;39.96;101513.38;5090954;28;20520;-68
2022/08/13 04:45:16;;;;;;;6.22;3.88;;;;;;;21.67;40.08;101511.66;5089383;28;20028;-68
2022/08/13 04:47:43;;;;;;;5.93;3.85;;;;;;;21.65;40.21;101514.56;5081884;28;20040;-69
2022/08/13 04:50:11;;;;;;;6.82;4.25;;;;;;;21.65;40.16;101519.19;5091183;27;20587;-69
2022/08/13 04:52:39;;;;;;;4.05;3.38;;;;;;;21.64;40.32;101517.47;5091422;28;20489;-69
2022/08/13 04:55:10;;;;;;;8.18;3.72;;;;;;;21.63;40.54;101524.81;5089934;28;20420;-69
2022/08/13 04:57:41;;;;;;;5.82;3.50;;;;;;;21.63;40.55;101523.94;5091431;28;20098;-69
2022/08/13 05:00:32;;;;;;;5.18;3.78;;;;;;;21.61;40.45;101520.53;5091112;28;20048;-69
2022/08/13 05:03:14;;;;;;;4.30;3.20;;;;;;;21.62;40.70;101514.91;5091888;28;20044;-69
2022/08/13 05:05:47;;;;;;;7.70;3.70;;;;;;;21.62;40.50;101524.97;5091573;28;20124;-68
2022/08/13 05:08:16;;;;;;;7.65;3.42;;;;;;;21.61;40.62;101520.53;5091467;28;20072;-69
2022/08/13 05:10:47;;;;;;;4.65;3.67;;;;;;;21.60;40.81;101522.41;5091269;28;20551;-68
2022/08/13 05:13:21;;;;;;;5.55;3.78;;;;;;;21.60;40.53;101516.94;5091114;28;20120;-67
2022/08/13 05:15:48;;;;;;;5.28;4.00;;;;;;;21.61;40.77;101528.72;5091293;28;20039;-69
2022/08/13 05:18:15;;;;;;;5.38;3.92;;;;;;;21.61;41.14;101536.94;5090332;28;20263;-68
2022/08/13 05:20:53;;;;;;;7.10;3.50;;;;;;;21.60;40.85;101527.88;5091997;28;20044;-68
2022/08/13 05:23:23;;;;;;;5.50;3.45;;;;;;;21.61;41.35;101526.00;5091194;28;20118;-68
2022/08/13 05:26:11;;;;;;;4.78;3.03;;;;;;;21.63;40.91;101532.16;5091009;28;20489;-69
2022/08/13 05:29:04;;;;;;;5.60;3.25;;;;;;;21.64;40.90;101533.88;5086384;28;20044;-69
2022/08/13 05:31:35;;;;;;;5.45;3.30;;;;;;;21.66;41.32;101526.34;5090622;28;20486;-68
2022/08/13 05:34:24;;;;;;;5.10;3.50;;;;;;;21.69;41.36;101526.03;5091095;28;20040;-68
2022/08/13 05:36:52;;;;;;;5.28;3.75;;;;;;;21.69;41.47;101524.16;5091511;28;20043;-68
2022/08/13 05:39:40;;;;;;;6.35;4.03;;;;;;;21.73;41.32;101524.69;5090220;28;20040;-69
2022/08/13 05:42:15;;;;;;;9.05;3.65;;;;;;;21.77;41.72;101528.78;5090962;28;20123;-69
2022/08/13 05:44:47;;;;;;;5.75;3.80;;;;;;;21.79;41.80;101526.75;5089062;27;20036;-68
2022/08/13 05:47:14;;;;;;;6.10;4.00;;;;;;;21.82;41.73;101526.41;5091412;28;20040;-68
2022/08/13 05:49:42;;;;;;;6.28;3.78;;;;;;;21.86;41.83;101530.53;5091215;28;20062;-68
2022/08/13 05:52:30;;;;;;;4.05;3.65;;;;;;;21.91;41.88;101532.78;5090764;28;20444;-68
2022/08/13 05:55:09;;;;;;;4.35;3.15;;;;;;;21.95;41.75;101524.06;5090983;27;20044;-68
2022/08/13 05:57:55;;;;;;;4.78;3.50;;;;;;;22.01;41.99;101528.88;5090674;28;20109;-69
2022/08/13 06:03:28;;;;;;;4.82;3.20;;;;;;;22.14;41.75;101532.00;5090675;28;20348;-69
2022/08/13 06:06:18;;;;;;;4.25;2.78;;;;;;;22.25;41.91;101539.03;5079142;28;20102;-69
2022/08/13 06:08:56;;;;;;;4.88;2.97;;;;;;;22.36;41.45;101530.53;5091743;28;20040;-70
2022/08/13 06:11:30;;;;;;;3.25;2.53;;;;;;;22.49;41.65;101530.03;5091043;28;20086;-70
2022/08/13 06:14:20;;;;;;;8.80;3.25;;;;;;;22.61;41.43;101533.28;5090935;28;20055;-70
2022/08/13 06:16:51;;;;;;;6.13;2.95;;;;;;;22.70;41.75;101527.63;5090921;28;20093;-70
2022/08/13 06:19:25;;;;;;;5.00;2.85;;;;;;;22.81;41.39;101537.44;5090930;28;20064;-68
2022/08/13 06:22:01;;;;;;;8.75;3.13;;;;;;;22.93;41.69;101535.19;5089772;28;20040;-68
2022/08/13 06:24:35;;;;;;;3.08;2.63;;;;;;;23.07;41.70;101526.28;5089960;28;20059;-72
2022/08/13 06:27:18;;;;;;;5.47;2.85;;;;;;;23.25;41.34;101523.34;5089401;28;20548;-69
2022/08/13 06:29:45;;;;;;;6.80;2.95;;;;;;;23.36;41.19;101518.34;5091035;28;20064;-69
2022/08/13 06:32:21;;;;;;;5.70;2.78;;;;;;;23.52;41.00;101525.66;5096674;28;20045;-68
2022/08/13 06:35:08;;;;;;;6.20;2.90;;;;;;;23.74;40.72;101521.31;5087902;28;20083;-69
2022/08/13 06:37:41;;;;;;;5.20;2.83;;;;;;;23.89;40.71;101524.19;5094976;28;20091;-71
2022/08/13 06:40:20;;;;;;;8.13;3.00;;;;;;;24.08;40.63;101526.47;5093105;28;20044;-71
2022/08/13 06:43:05;;;;;;;5.03;2.40;;;;;;;24.30;40.58;101533.06;5094348;28;20044;-71
2022/08/13 06:45:33;;;;;;;4.55;2.45;;;;;;;24.49;40.38;101537.19;5094922;28;20482;-68
2022/08/13 06:48:02;;;;;;;6.03;2.70;;;;;;;24.68;40.14;101532.09;5093339;28;20028;-67
2022/08/13 06:50:34;;;;;;;4.55;3.13;;;;;;;24.91;39.70;101534.81;5093974;28;20075;-68
2022/08/13 06:53:10;;;;;;;5.75;3.30;;;;;;;25.13;39.40;101534.97;5093375;28;20543;-68
2022/08/13 06:55:57;;;;;;;5.43;2.70;;;;;;;25.37;39.37;101536.63;5093988;28;20097;-68
2022/08/13 06:58:46;;;;;;;4.05;2.42;;;;;;;25.62;39.18;101532.53;5094051;28;20570;-68
2022/08/13 07:01:19;;;;;;;4.53;2.40;;;;;;;25.89;38.95;101534.63;5092538;28;20051;-68
2022/08/13 07:03:49;;;;;;;6.80;2.67;;;;;;;26.16;38.51;101534.97;5093011;28;20086;-68
2022/08/13 07:06:27;;;;;;;4.18;2.70;;;;;;;26.40;38.00;101533.78;5091036;28;20126;-67
2022/08/13 07:08:59;;;;;;;5.32;3.35;;;;;;;26.59;37.87;101535.88;5093465;28;20048;-68
2022/08/13 07:11:28;;;;;;;9.48;3.65;;;;;;;26.85;37.79;101543.56;5093350;28;20040;-68
2022/08/13 07:14:07;;;;;;;6.25;2.60;;;;;;;27.10;37.58;101536.59;5093952;28;20043;-68
2022/08/13 07:16:40;;;;;;;3.72;2.55;;;;;;;27.32;37.23;101536.53;5092549;28;20062;-68
2022/08/13 07:19:11;;;;;;;12.00;2.40;;;;;;;27.55;37.10;101537.13;5093251;28;20097;-68
2022/08/13 07:21:40;;;;;;;5.40;2.05;;;;;;;27.81;36.62;101540.03;5093400;28;20044;-69
2022/08/13 07:24:13;;;;;;;6.65;2.08;;;;;;;28.03;36.45;101548.19;5093328;28;20078;-70
2022/08/13 07:27:07;;;;;;;3.85;1.98;;;;;;;28.27;36.30;101539.41;5091013;28;20545;-71
2022/08/13 07:29:36;;;;;;;4.65;2.30;;;;;;;28.50;35.92;101547.31;5093651;28;20032;-69
2022/08/13 07:32:19;;;;;;;5.60;1.98;;;;;;;28.65;35.59;101547.97;5093084;28;20478;-69
2022/08/13 07:35:00;;;;;;;3.78;2.15;;;;;;;28.83;35.47;101550.13;5093419;28;20040;-72
2022/08/13 07:37:26;;;;;;;4.05;2.33;;;;;;;28.98;35.17;101538.88;5093482;28;20549;-72
2022/08/13 07:39:56;;;;;;;3.20;1.90;;;;;;;29.08;34.82;101542.94;5074739;28;20489;-72
2022/08/13 07:42:28;;;;;;;3.90;2.25;;;;;;;29.19;34.43;101546.97;5090709;28;20047;-69
2022/08/13 07:45:01;;;;;;;4.70;2.28;;;;;;;29.23;34.19;101537.19;5092192;28;20037;-69
2022/08/13 07:47:50;;;;;;;6.75;2.15;;;;;;;29.33;34.00;101540.34;5093215;28;20398;-70
2022/08/13 07:50:39;;;;;;;4.22;1.98;;;;;;;29.49;33.93;101533.53;5093010;28;20036;-69
2022/08/13 07:53:12;;;;;;;5.20;2.10;;;;;;;29.64;33.69;101538.81;5092762;28;20036;-70
2022/08/13 07:55:44;;;;;;;3.80;1.92;;;;;;;29.76;33.46;101539.03;5091814;28;20163;-69
2022/08/13 07:58:36;;;;;;;3.55;2.47;;;;;;;29.89;33.28;101537.03;5091811;28;20393;-70
2022/08/13 08:01:06;;;;;;;8.65;2.10;;;;;;;29.98;33.01;101538.50;5091336;28;20056;-72
2022/08/13 08:03:42;;;;;;;5.53;2.00;;;;;;;30.08;32.92;101532.50;5091409;28;20562;-72
2022/08/13 08:06:19;;;;;;;6.25;2.20;;;;;;;30.27;32.99;101534.31;5092783;28;20036;-74
2022/08/13 08:08:57;;;;;;;2.95;1.92;;;;;;;30.43;32.59;101532.94;5091054;28;20458;-71
2022/08/13 08:14:25;;;;;;;4.50;2.08;;;;;;;30.73;32.35;101543.44;5092331;28;20101;-72
2022/08/13 08:17:01;;;;;;;6.90;1.75;;;;;;;30.83;32.02;101533.56;5075126;28;20044;-72
2022/08/13 08:19:50;;;;;;;4.95;1.75;;;;;;;30.95;32.10;101542.00;5092166;28;20044;-72
2022/08/13 08:22:43;;;;;;;8.25;2.00;;;;;;;31.13;31.66;101543.97;5091490;28;20044;-72
2022/08/13 08:25:16;;;;;;;4.70;2.00;;;;;;;31.28;31.51;101548.13;5092434;27;20323;-72
2022/08/13 08:27:47;;;;;;;2.88;2.00;;;;;;;31.39;30.99;101552.09;5092314;28;20036;-71
2022/08/13 08:30:36;;;;;;;3.58;1.80;;;;;;;31.49;31.17;101544.06;5092320;28;20044;-71
2022/08/13 08:33:26;;;;;;;3.40;1.70;;;;;;;31.64;30.79;101542.84;5091050;28;20389;-71
2022/08/13 08:36:13;;;;;;;5.10;1.88;;;;;;;31.74;30.59;101548.72;5092186;28;20082;-71
2022/08/13 08:44:33;;;;;;;4.03;1.88;;;;;;;32.03;29.66;101545.19;5092002;27;20044;-70
2022/08/13 08:47:01;;;;;;;3.60;1.85;;;;;;;32.09;29.71;101544.25;5091981;28;20056;-73
2022/08/13 08:49:35;;;;;;;4.47;1.58;;;;;;;32.19;29.46;101552.03;5091643;28;20044;-70
2022/08/13 08:52:12;;;;;;;7.70;1.63;;;;;;;32.30;29.44;101540.13;5091281;28;20040;-72
2022/08/13 08:54:45;;;;;;;3.80;1.80;;;;;;;32.47;29.10;101548.66;5091490;27;20051;-72
2022/08/13 08:57:18;;;;;;;3.78;1.58;;;;;;;32.65;29.00;101547.72;5092249;28;20111;-71
2022/08/13 08:59:46;;;;;;;5.43;1.77;;;;;;;32.76;28.68;101542.22;5090873;28;20260;-72
2022/08/13 09:02:24;;;;;;;2.50;1.70;;;;;;;32.86;28.27;101547.22;5091639;28;20051;-71
2022/08/13 09:04:54;;;;;;;4.30;1.65;;;;;;;32.94;28.42;101535.75;5091547;28;20421;-73
2022/08/13 09:07:46;;;;;;;3.13;1.58;;;;;;;33.02;28.17;101538.19;5091060;28;20055;-73
2022/08/13 09:10:16;;;;;;;4.72;1.77;;;;;;;33.13;27.87;101537.34;5091259;28;20058;-73
2022/08/13 09:13:02;;;;;;;3.50;1.80;;;;;;;33.26;27.79;101530.69;5091332;28;20036;-74
2022/08/13 09:15:35;;;;;;;4.45;1.50;;;;;;;33.37;27.88;101538.19;5089938;28;20046;-73
2022/08/13 09:18:05;;;;;;;3.92;1.77;;;;;;;33.55;27.35;101525.25;5091441;28;20068;-74
2022/08/13 09:20:41;;;;;;;5.57;1.67;;;;;;;33.69;27.39;101526.69;5089965;28;20044;-76
2022/08/13 09:23:17;;;;;;;3.67;1.65;;;;;;;33.77;27.03;101523.50;5090899;28;20040;-75
2022/08/13 09:26:05;;;;;;;3.95;1.70;;;;;;;33.89;26.96;101518.78;5091407;28;20520;-75
2022/08/13 09:28:32;;;;;;;2.10;1.50;;;;;;;33.95;26.88;101519.72;5091240;28;20044;-75
2022/08/13 09:31:03;;;;;;;3.72;1.70;;;;;;;34.02;26.72;101526.84;5091547;28;20048;-75
2022/08/13 09:33:41;;;;;;;2.45;1.30;;;;;;;34.09;26.23;101529.50;5090730;28;20036;-76
2022/08/13 09:36:27;;;;;;;4.82;1.80;;;;;;;34.18;26.30;101522.41;5091339;28;20111;-76
2022/08/13 09:38:55;;;;;;;5.95;1.77;;;;;;;34.25;26.07;101520.34;5091144;28;20456;-75
2022/08/13 09:41:32;;;;;;;2.75;1.58;;;;;;;34.30;26.17;101519.59;5091081;28;20123;-75
2022/08/13 09:44:04;;;;;;;2.67;1.35;;;;;;;34.39;26.15;101506.97;5090572;27;20064;-76
2022/08/13 09:46:45;;;;;;;2.38;1.15;;;;;;;34.56;25.74;101512.56;5090387;28;20106;-75
2022/08/13 09:49:20;;;;;;;4.32;1.13;;;;;;;34.67;25.06;101512.50;5091257;28;20505;-73
2022/08/13 09:52:04;;;;;;;1.95;1.20;;;;;;;34.78;25.12;101509.88;5090995;28;20037;-74
2022/08/13 09:54:44;;;;;;;4.15;1.48;;;;;;;34.92;24.53;101511.25;5069631;28;20486;-74
2022/08/13 09:57:20;;;;;;;4.93;1.50;;;;;;;35.05;24.88;101508.16;5081101;28;20484;-73
2022/08/13 09:59:48;;;;;;;1.98;1.00;;;;;;;35.17;24.58;101508.03;5090794;28;20117;-74
2022/08/13 10:02:24;;;;;;;3.40;1.13;;;;;;;35.29;24.71;101505.97;5091093;28;20040;-73
2022/08/13 10:04:57;;;;;;;2.47;1.20;;;;;;;35.42;24.17;101507.59;5093040;28;20043;-74
2022/08/13 10:07:23;;;;;;;3.92;1.10;;;;;;;35.53;23.81;101501.03;5094639;28;20087;-73
2022/08/13 10:09:50;;;;;;;3.08;1.10;;;;;;;35.66;23.85;101497.84;5094917;28;20040;-74
2022/08/13 10:12:21;;;;;;;2.85;1.08;;;;;;;35.76;23.18;101495.22;5094775;28;20075;-73
2022/08/13 10:14:49;;;;;;;1.33;1.10;;;;;;;35.85;23.04;101488.09;5094586;28;20032;-74
2022/08/13 10:17:27;;;;;;;2.17;1.15;;;;;;;35.99;22.78;101485.72;5094253;28;20040;-75
2022/08/13 10:20:15;;;;;;;1.48;1.00;;;;;;;36.10;22.79;101493.13;5094450;28;20047;-75
2022/08/13 10:22:43;;;;;;;2.65;0.98;;;;;;;36.16;22.49;101491.22;5094649;28;20040;-74
2022/08/13 10:25:11;;;;;;;4.57;1.75;;;;;;;36.22;22.52;101477.03;5093375;28;20059;-75
2022/08/13 10:27:39;;;;;;;2.22;1.00;;;;;;;36.33;22.36;101480.81;5094265;28;20094;-75
2022/08/13 10:30:18;;;;;;;1.77;0.95;;;;;;;36.44;21.63;101479.81;5093230;28;20084;-76
2022/08/13 10:33:08;;;;;;;2.00;1.25;;;;;;;36.46;21.70;101477.59;5094481;28;20048;-76
2022/08/13 10:35:35;;;;;;;1.92;0.80;;;;;;;36.47;21.50;101476.50;5093907;27;20502;-74
2022/08/13 10:38:16;;;;;;;1.70;1.07;;;;;;;36.49;21.65;101479.84;5094405;28;20036;-77
2022/08/13 10:40:45;;;;;;;7.38;1.23;;;;;;;36.52;21.12;101475.69;5094111;28;20444;-75
2022/08/13 10:43:14;;;;;;;3.05;1.00;;;;;;;36.58;21.17;101478.25;5094501;28;20089;-76
2022/08/13 10:45:53;;;;;;;2.80;1.33;;;;;;;36.64;20.84;101475.50;5091791;28;20063;-75
2022/08/13 10:48:20;;;;;;;1.27;1.00;;;;;;;36.73;21.16;101479.50;5094094;28;20040;-75
2022/08/13 10:50:47;;;;;;;2.67;1.05;;;;;;;36.84;20.87;101468.13;5093971;28;20040;-76
2022/08/13 10:56:10;;;;;;;1.65;1.05;;;;;;;37.04;20.84;101470.22;5093335;28;20373;-76
2022/08/13 10:58:39;;;;;;;2.35;0.90;;;;;;;37.13;20.72;101473.38;5094404;28;20333;-74
2022/08/13 11:01:12;;;;;;;1.38;1.23;;;;;;;37.23;20.97;101470.69;5092849;28;20085;-73
2022/08/13 11:03:45;;;;;;;3.70;0.90;;;;;;;37.25;20.45;101462.00;5094270;28;20046;-74
2022/08/13 11:06:14;;;;;;;2.35;1.10;;;;;;;37.28;20.45;101451.09;5093380;27;20448;-74
2022/08/13 11:08:42;;;;;;;2.70;0.90;;;;;;;37.25;19.83;101462.00;5093995;28;20040;-74
2022/08/13 11:11:10;;;;;;;1.85;0.80;;;;;;;37.26;20.02;101458.09;5093560;28;20504;-73
2022/08/13 11:13:57;;;;;;;2.92;1.00;;;;;;;37.29;20.08;101454.75;5094296;28;20055;-73
2022/08/13 11:16:58;;;;;;;2.42;0.93;;;;;;;37.33;19.83;101453.09;5091763;28;20070;-73
2022/08/13 11:19:31;;;;;;;2.78;1.15;;;;;;;37.37;19.35;101455.06;5093292;28;20393;-74
2022/08/13 11:22:18;;;;;;;2.40;1.00;;;;;;;37.39;19.67;101452.84;5093401;28;20040;-72
2022/08/13 11:25:03;;;;;;;2.20;1.10;;;;;;;37.34;19.28;101447.22;5093717;28;20051;-73
2022/08/13 11:27:50;;;;;;;1.63;0.90;;;;;;;37.43;19.35;101453.97;5093409;28;20040;-73
2022/08/13 11:30:19;;;;;;;2.20;0.80;;;;;;;37.52;19.06;101437.47;5093167;28;20110;-74
2022/08/13 11:33:05;;;;;;;4.82;1.13;;;;;;;37.58;19.06;101443.94;5093474;28;20050;-74
2022/08/13 11:35:41;;;;;;;2.70;1.00;;;;;;;37.58;18.48;101432.72;5091387;28;20052;-74
2022/08/13 11:38:17;;;;;;;1.10;0.88;;;;;;;37.59;18.49;101432.47;5091916;28;20554;-73
2022/08/13 11:41:01;;;;;;;1.83;0.70;;;;;;;37.62;18.60;101431.06;5091841;28;20058;-73
2022/08/13 11:43:31;;;;;;;4.30;0.93;;;;;;;37.72;18.47;101429.16;5093207;28;20060;-73
2022/08/13 11:46:19;;;;;;;2.45;1.00;;;;;;;37.77;18.50;101426.38;5092694;28;20525;-73
2022/08/13 11:48:49;;;;;;;2.45;0.80;;;;;;;37.86;18.50;101429.47;5093157;28;20067;-73
2022/08/13 11:51:34;;;;;;;0.90;0.80;;;;;;;37.89;18.28;101416.88;5093144;28;20502;-73
2022/08/13 11:54:20;;;;;;;1.23;0.70;;;;;;;37.93;18.43;101421.69;5093080;28;20036;-71
2022/08/13 11:57:00;;;;;;;1.45;0.80;;;;;;;37.95;18.34;101422.25;5092442;27;20075;-72
2022/08/13 11:59:27;;;;;;;1.88;0.80;;;;;;;37.95;18.22;101416.63;5092773;28;20044;-72
2022/08/13 12:02:07;;;;;;;1.40;0.95;;;;;;;38.03;18.11;101418.03;5092467;28;20044;-72
2022/08/13 12:04:43;;;;;;;2.25;0.95;;;;;;;38.17;17.83;101409.94;5093069;28;20054;-74
2022/08/13 12:07:20;;;;;;;0.70;0.63;;;;;;;38.26;17.96;101419.50;5092221;28;20040;-73
2022/08/13 12:09:46;;;;;;;2.92;0.80;;;;;;;38.32;17.67;101412.75;5092624;28;20050;-74
2022/08/13 12:12:16;;;;;;;1.15;0.70;;;;;;;38.31;17.49;101413.88;5092477;28;20051;-74
2022/08/13 12:14:50;;;;;;;1.90;0.90;;;;;;;38.31;17.72;101409.13;5092825;28;20047;-73
2022/08/13 12:17:18;;;;;;;2.83;0.90;;;;;;;38.36;17.55;101414.72;5091797;28;20032;-74
2022/08/13 12:20:06;;;;;;;1.48;0.90;;;;;;;38.42;17.60;101409.94;5092104;27;20047;-75
2022/08/13 12:22:50;;;;;;;1.40;0.98;;;;;;;38.41;17.33;101402.66;5092162;28;20087;-74
2022/08/13 12:25:22;;;;;;;5.13;1.30;;;;;;;38.45;17.46;101413.03;5092247;27;20282;-76
2022/08/13 12:28:10;;;;;;;1.77;1.00;;;;;;;38.53;17.26;101410.78;5091786;28;20043;-76
2022/08/13 12:30:48;;;;;;;3.80;0.90;;;;;;;38.60;17.50;101400.09;5092132;28;20097;-76
2022/08/13 12:33:21;;;;;;;2.03;0.98;;;;;;;38.62;17.24;101401.53;5090944;28;20074;-75
2022/08/13 12:35:49;;;;;;;1.60;1.00;;;;;;;38.61;17.14;101404.63;5092319;28;20069;-76